sensor_id;sensor_type;location;lat;lon;timestamp;temperature;humidity
66337;SHT30;53139;45.576;5.304;2023-06-19T00:01:31;22.15;62.66
66337;SHT30;53139;45.576;5.304;2023-06-19T00:04:31;22.22;61.95
66337;SHT30;53139;45.576;5.304;2023-06-19T00:07:32;22.24;61.97
66337;SHT30;53139;45.576;5.304;2023-06-19T00:10:33;22.25;61.90
66337;SHT30;53139;45.576;5.304;2023-06-19T00:13:33;22.18;62.31
66337;SHT30;53139;45.576;5.304;2023-06-19T00:16:36;22.17;62.39
66337;SHT30;53139;45.576;5.304;2023-06-19T00:19:37;22.17;62.26
66337;SHT30;53139;45.576;5.304;2023-06-19T00:22:37;22.05;63.12
66337;SHT30;53139;45.576;5.304;2023-06-19T00:25:38;22.10;62.41
66337;SHT30;53139;45.576;5.304;2023-06-19T00:28:38;21.98;63.47
66337;SHT30;53139;45.576;5.304;2023-06-19T00:31:39;22.07;62.80
66337;SHT30;53139;45.576;5.304;2023-06-19T00:34:39;22.07;62.95
66337;SHT30;53139;45.576;5.304;2023-06-19T00:37:43;22.08;62.93
66337;SHT30;53139;45.576;5.304;2023-06-19T00:40:44;22.08;62.57
66337;SHT30;53139;45.576;5.304;2023-06-19T00:43:45;22.08;62.73
66337;SHT30;53139;45.576;5.304;2023-06-19T00:46:45;22.11;62.32
66337;SHT30;53139;45.576;5.304;2023-06-19T00:49:46;22.05;62.57
66337;SHT30;53139;45.576;5.304;2023-06-19T00:52:47;22.00;62.63
66337;SHT30;53139;45.576;5.304;2023-06-19T00:55:48;22.02;62.48
66337;SHT30;53139;45.576;5.304;2023-06-19T00:58:49;22.05;62.64
66337;SHT30;53139;45.576;5.304;2023-06-19T01:01:50;21.98;63.13
66337;SHT30;53139;45.576;5.304;2023-06-19T01:04:50;22.07;62.37
66337;SHT30;53139;45.576;5.304;2023-06-19T01:08:04;22.05;62.34
66337;SHT30;53139;45.576;5.304;2023-06-19T01:11:07;21.94;63.48
66337;SHT30;53139;45.576;5.304;2023-06-19T01:14:16;21.97;62.91
66337;SHT30;53139;45.576;5.304;2023-06-19T01:17:18;21.90;63.21
66337;SHT30;53139;45.576;5.304;2023-06-19T01:20:18;21.93;63.46
66337;SHT30;53139;45.576;5.304;2023-06-19T01:23:19;21.89;63.38
66337;SHT30;53139;45.576;5.304;2023-06-19T01:26:23;21.80;63.75
66337;SHT30;53139;45.576;5.304;2023-06-19T01:29:27;21.84;63.96
66337;SHT30;53139;45.576;5.304;2023-06-19T01:35:36;21.72;64.86
66337;SHT30;53139;45.576;5.304;2023-06-19T01:38:37;21.76;64.44
66337;SHT30;53139;45.576;5.304;2023-06-19T01:41:39;21.73;64.69
66337;SHT30;53139;45.576;5.304;2023-06-19T01:44:40;21.70;65.30
66337;SHT30;53139;45.576;5.304;2023-06-19T01:47:41;21.60;65.10
66337;SHT30;53139;45.576;5.304;2023-06-19T01:50:48;21.59;65.80
66337;SHT30;53139;45.576;5.304;2023-06-19T01:53:48;21.67;64.69
66337;SHT30;53139;45.576;5.304;2023-06-19T01:56:49;21.67;64.47
66337;SHT30;53139;45.576;5.304;2023-06-19T01:59:49;21.50;65.12
66337;SHT30;53139;45.576;5.304;2023-06-19T02:02:49;21.49;65.15
66337;SHT30;53139;45.576;5.304;2023-06-19T02:05:50;21.38;64.84
66337;SHT30;53139;45.576;5.304;2023-06-19T02:08:50;21.32;65.40
66337;SHT30;53139;45.576;5.304;2023-06-19T02:11:50;21.24;65.94
66337;SHT30;53139;45.576;5.304;2023-06-19T02:14:51;21.21;65.38
66337;SHT30;53139;45.576;5.304;2023-06-19T02:17:51;21.17;65.34
66337;SHT30;53139;45.576;5.304;2023-06-19T02:20:55;21.18;64.66
66337;SHT30;53139;45.576;5.304;2023-06-19T02:23:55;21.14;65.42
66337;SHT30;53139;45.576;5.304;2023-06-19T02:26:56;21.22;65.28
66337;SHT30;53139;45.576;5.304;2023-06-19T02:29:57;21.28;64.22
66337;SHT30;53139;45.576;5.304;2023-06-19T02:32:57;21.12;64.55
66337;SHT30;53139;45.576;5.304;2023-06-19T02:35:58;21.15;64.85
66337;SHT30;53139;45.576;5.304;2023-06-19T02:38:59;21.15;64.64
66337;SHT30;53139;45.576;5.304;2023-06-19T02:42:00;21.25;64.10
66337;SHT30;53139;45.576;5.304;2023-06-19T02:45:00;21.21;64.05
66337;SHT30;53139;45.576;5.304;2023-06-19T02:48:03;21.31;63.75
66337;SHT30;53139;45.576;5.304;2023-06-19T02:51:04;21.12;64.46
66337;SHT30;53139;45.576;5.304;2023-06-19T02:54:04;21.21;63.87
66337;SHT30;53139;45.576;5.304;2023-06-19T02:57:06;21.15;64.05
66337;SHT30;53139;45.576;5.304;2023-06-19T03:00:07;21.11;64.07
66337;SHT30;53139;45.576;5.304;2023-06-19T03:03:09;20.88;64.84
66337;SHT30;53139;45.576;5.304;2023-06-19T03:06:09;20.90;64.56
66337;SHT30;53139;45.576;5.304;2023-06-19T03:09:10;20.80;65.42
66337;SHT30;53139;45.576;5.304;2023-06-19T03:12:13;20.69;65.98
66337;SHT30;53139;45.576;5.304;2023-06-19T03:15:13;20.45;67.63
66337;SHT30;53139;45.576;5.304;2023-06-19T03:18:14;20.69;64.69
66337;SHT30;53139;45.576;5.304;2023-06-19T03:21:15;20.49;65.69
66337;SHT30;53139;45.576;5.304;2023-06-19T03:24:16;20.43;66.43
66337;SHT30;53139;45.576;5.304;2023-06-19T03:27:16;20.47;66.09
66337;SHT30;53139;45.576;5.304;2023-06-19T03:30:17;20.49;65.10
66337;SHT30;53139;45.576;5.304;2023-06-19T03:33:18;20.19;68.91
66337;SHT30;53139;45.576;5.304;2023-06-19T03:36:19;20.25;68.98
66337;SHT30;53139;45.576;5.304;2023-06-19T03:39:19;20.36;66.58
66337;SHT30;53139;45.576;5.304;2023-06-19T03:42:20;20.33;67.87
66337;SHT30;53139;45.576;5.304;2023-06-19T03:45:20;20.25;67.56
66337;SHT30;53139;45.576;5.304;2023-06-19T03:48:20;20.18;69.31
66337;SHT30;53139;45.576;5.304;2023-06-19T03:51:21;20.18;68.08
66337;SHT30;53139;45.576;5.304;2023-06-19T03:54:21;20.19;68.29
66337;SHT30;53139;45.576;5.304;2023-06-19T03:57:21;20.21;67.63
66337;SHT30;53139;45.576;5.304;2023-06-19T04:00:22;20.24;67.64
66337;SHT30;53139;45.576;5.304;2023-06-19T04:03:22;20.35;66.34
66337;SHT30;53139;45.576;5.304;2023-06-19T04:06:23;20.30;67.09
66337;SHT30;53139;45.576;5.304;2023-06-19T04:09:23;20.35;66.37
66337;SHT30;53139;45.576;5.304;2023-06-19T04:12:24;20.40;65.54
66337;SHT30;53139;45.576;5.304;2023-06-19T04:15:24;20.32;69.52
66337;SHT30;53139;45.576;5.304;2023-06-19T04:18:25;20.50;65.57
66337;SHT30;53139;45.576;5.304;2023-06-19T04:21:27;20.46;66.31
66337;SHT30;53139;45.576;5.304;2023-06-19T04:24:28;20.53;66.98
66337;SHT30;53139;45.576;5.304;2023-06-19T04:27:28;20.59;66.34
66337;SHT30;53139;45.576;5.304;2023-06-19T04:30:57;20.62;66.29
66337;SHT30;53139;45.576;5.304;2023-06-19T04:34:39;20.59;66.67
66337;SHT30;53139;45.576;5.304;2023-06-19T04:38:15;20.60;66.31
66337;SHT30;53139;45.576;5.304;2023-06-19T04:42:01;20.69;66.42
66337;SHT30;53139;45.576;5.304;2023-06-19T04:45:44;20.64;66.88
66337;SHT30;53139;45.576;5.304;2023-06-19T04:48:50;20.77;65.80
66337;SHT30;53139;45.576;5.304;2023-06-19T04:51:53;20.85;65.64
66337;SHT30;53139;45.576;5.304;2023-06-19T04:54:57;20.74;67.27
66337;SHT30;53139;45.576;5.304;2023-06-19T04:57:58;20.76;66.96
66337;SHT30;53139;45.576;5.304;2023-06-19T05:00:59;20.79;67.41
66337;SHT30;53139;45.576;5.304;2023-06-19T05:04:00;20.94;65.43
66337;SHT30;53139;45.576;5.304;2023-06-19T05:07:00;20.90;65.93
66337;SHT30;53139;45.576;5.304;2023-06-19T05:10:00;20.93;66.17
66337;SHT30;53139;45.576;5.304;2023-06-19T05:13:01;20.98;66.07
66337;SHT30;53139;45.576;5.304;2023-06-19T05:16:02;20.97;67.28
66337;SHT30;53139;45.576;5.304;2023-06-19T05:19:02;21.05;66.44
66337;SHT30;53139;45.576;5.304;2023-06-19T05:22:03;21.01;66.65
66337;SHT30;53139;45.576;5.304;2023-06-19T05:25:03;21.02;66.93
66337;SHT30;53139;45.576;5.304;2023-06-19T05:28:04;21.05;66.71
66337;SHT30;53139;45.576;5.304;2023-06-19T05:31:04;21.04;67.25
66337;SHT30;53139;45.576;5.304;2023-06-19T05:34:04;21.01;67.25
66337;SHT30;53139;45.576;5.304;2023-06-19T05:37:05;20.98;67.41
66337;SHT30;53139;45.576;5.304;2023-06-19T05:40:06;20.98;67.26
66337;SHT30;53139;45.576;5.304;2023-06-19T05:43:07;21.12;67.50
66337;SHT30;53139;45.576;5.304;2023-06-19T05:46:07;20.98;68.94
66337;SHT30;53139;45.576;5.304;2023-06-19T05:49:08;21.12;67.86
66337;SHT30;53139;45.576;5.304;2023-06-19T05:52:08;21.12;67.78
66337;SHT30;53139;45.576;5.304;2023-06-19T05:55:10;21.01;68.50
66337;SHT30;53139;45.576;5.304;2023-06-19T05:58:10;20.97;69.38
66337;SHT30;53139;45.576;5.304;2023-06-19T06:01:11;21.00;68.47
66337;SHT30;53139;45.576;5.304;2023-06-19T06:04:11;20.95;70.08
66337;SHT30;53139;45.576;5.304;2023-06-19T06:07:12;20.94;69.36
66337;SHT30;53139;45.576;5.304;2023-06-19T06:10:13;21.01;69.54
66337;SHT30;53139;45.576;5.304;2023-06-19T06:13:14;20.95;70.05
66337;SHT30;53139;45.576;5.304;2023-06-19T06:16:14;20.93;69.92
66337;SHT30;53139;45.576;5.304;2023-06-19T06:19:15;21.08;69.16
66337;SHT30;53139;45.576;5.304;2023-06-19T06:22:16;21.05;70.19
66337;SHT30;53139;45.576;5.304;2023-06-19T06:25:16;21.07;69.95
66337;SHT30;53139;45.576;5.304;2023-06-19T06:28:16;21.07;70.46
66337;SHT30;53139;45.576;5.304;2023-06-19T06:31:17;21.29;68.47
66337;SHT30;53139;45.576;5.304;2023-06-19T06:34:18;21.24;69.52
66337;SHT30;53139;45.576;5.304;2023-06-19T06:37:19;21.24;69.02
66337;SHT30;53139;45.576;5.304;2023-06-19T06:40:22;21.25;68.93
66337;SHT30;53139;45.576;5.304;2023-06-19T06:43:23;21.21;69.97
66337;SHT30;53139;45.576;5.304;2023-06-19T06:46:23;21.17;70.46
66337;SHT30;53139;45.576;5.304;2023-06-19T06:49:23;21.05;72.28
66337;SHT30;53139;45.576;5.304;2023-06-19T06:52:24;21.01;71.94
66337;SHT30;53139;45.576;5.304;2023-06-19T06:55:24;20.81;73.54
66337;SHT30;53139;45.576;5.304;2023-06-19T06:58:25;20.85;73.26
66337;SHT30;53139;45.576;5.304;2023-06-19T07:01:25;20.88;73.48
66337;SHT30;53139;45.576;5.304;2023-06-19T07:04:28;20.80;74.59
66337;SHT30;53139;45.576;5.304;2023-06-19T07:07:28;20.73;75.52
66337;SHT30;53139;45.576;5.304;2023-06-19T07:10:31;20.79;75.82
66337;SHT30;53139;45.576;5.304;2023-06-19T07:13:32;20.76;73.83
66337;SHT30;53139;45.576;5.304;2023-06-19T07:16:32;20.84;75.26
66337;SHT30;53139;45.576;5.304;2023-06-19T07:19:33;20.77;76.40
66337;SHT30;53139;45.576;5.304;2023-06-19T07:22:33;20.83;73.68
66337;SHT30;53139;45.576;5.304;2023-06-19T07:25:33;20.81;76.23
66337;SHT30;53139;45.576;5.304;2023-06-19T07:28:34;20.84;75.47
66337;SHT30;53139;45.576;5.304;2023-06-19T07:31:36;20.88;75.32
66337;SHT30;53139;45.576;5.304;2023-06-19T07:34:36;21.01;74.18
66337;SHT30;53139;45.576;5.304;2023-06-19T07:37:37;21.10;74.61
66337;SHT30;53139;45.576;5.304;2023-06-19T07:40:37;21.15;74.71
66337;SHT30;53139;45.576;5.304;2023-06-19T07:43:38;21.29;73.55
66337;SHT30;53139;45.576;5.304;2023-06-19T07:46:38;21.46;73.33
66337;SHT30;53139;45.576;5.304;2023-06-19T07:49:39;21.41;73.97
66337;SHT30;53139;45.576;5.304;2023-06-19T07:52:39;21.43;72.80
66337;SHT30;53139;45.576;5.304;2023-06-19T07:55:41;21.52;73.02
66337;SHT30;53139;45.576;5.304;2023-06-19T07:58:41;21.67;72.52
66337;SHT30;53139;45.576;5.304;2023-06-19T08:01:42;21.87;71.60
66337;SHT30;53139;45.576;5.304;2023-06-19T08:04:43;21.84;72.05
66337;SHT30;53139;45.576;5.304;2023-06-19T08:07:43;21.83;73.47
66337;SHT30;53139;45.576;5.304;2023-06-19T08:10:44;22.05;71.40
66337;SHT30;53139;45.576;5.304;2023-06-19T08:13:44;22.10;71.13
66337;SHT30;53139;45.576;5.304;2023-06-19T08:16:45;22.17;72.41
66337;SHT30;53139;45.576;5.304;2023-06-19T08:19:45;22.11;71.47
66337;SHT30;53139;45.576;5.304;2023-06-19T08:22:46;22.21;71.26
66337;SHT30;53139;45.576;5.304;2023-06-19T08:25:46;21.91;72.16
66337;SHT30;53139;45.576;5.304;2023-06-19T08:28:46;22.20;71.56
66337;SHT30;53139;45.576;5.304;2023-06-19T08:31:47;22.15;70.52
66337;SHT30;53139;45.576;5.304;2023-06-19T08:34:48;21.94;70.94
66337;SHT30;53139;45.576;5.304;2023-06-19T08:37:48;22.02;72.58
66337;SHT30;53139;45.576;5.304;2023-06-19T08:40:49;22.14;72.00
66337;SHT30;53139;45.576;5.304;2023-06-19T08:43:50;22.28;70.81
66337;SHT30;53139;45.576;5.304;2023-06-19T08:46:50;22.32;71.08
66337;SHT30;53139;45.576;5.304;2023-06-19T08:49:51;22.35;71.52
66337;SHT30;53139;45.576;5.304;2023-06-19T08:52:51;22.52;72.28
66337;SHT30;53139;45.576;5.304;2023-06-19T08:55:52;23.03;70.24
66337;SHT30;53139;45.576;5.304;2023-06-19T08:58:53;23.41;70.32
66337;SHT30;53139;45.576;5.304;2023-06-19T09:01:54;23.61;70.96
66337;SHT30;53139;45.576;5.304;2023-06-19T09:04:55;23.76;69.63
66337;SHT30;53139;45.576;5.304;2023-06-19T09:07:58;23.99;70.58
66337;SHT30;53139;45.576;5.304;2023-06-19T09:11:02;24.17;69.42
66337;SHT30;53139;45.576;5.304;2023-06-19T09:14:03;24.25;68.75
66337;SHT30;53139;45.576;5.304;2023-06-19T09:17:05;24.65;66.34
66337;SHT30;53139;45.576;5.304;2023-06-19T09:20:06;24.44;66.60
66337;SHT30;53139;45.576;5.304;2023-06-19T09:23:07;24.31;66.19
66337;SHT30;53139;45.576;5.304;2023-06-19T09:26:07;24.52;68.71
66337;SHT30;53139;45.576;5.304;2023-06-19T09:29:12;24.34;70.43
66337;SHT30;53139;45.576;5.304;2023-06-19T09:32:25;24.72;69.18
66337;SHT30;53139;45.576;5.304;2023-06-19T09:35:26;24.51;65.68
66337;SHT30;53139;45.576;5.304;2023-06-19T09:38:29;24.61;65.76
66337;SHT30;53139;45.576;5.304;2023-06-19T09:41:30;24.84;64.64
66337;SHT30;53139;45.576;5.304;2023-06-19T09:44:31;25.27;62.91
66337;SHT30;53139;45.576;5.304;2023-06-19T09:47:43;25.19;63.87
66337;SHT30;53139;45.576;5.304;2023-06-19T09:50:46;25.48;63.68
66337;SHT30;53139;45.576;5.304;2023-06-19T09:53:49;25.92;62.76
66337;SHT30;53139;45.576;5.304;2023-06-19T09:56:52;26.95;63.45
66337;SHT30;53139;45.576;5.304;2023-06-19T09:59:56;26.54;62.39
66337;SHT30;53139;45.576;5.304;2023-06-19T10:02:58;26.69;58.40
66337;SHT30;53139;45.576;5.304;2023-06-19T10:06:04;26.71;57.46
66337;SHT30;53139;45.576;5.304;2023-06-19T10:09:08;26.71;55.57
66337;SHT30;53139;45.576;5.304;2023-06-19T10:12:13;27.71;59.64
66337;SHT30;53139;45.576;5.304;2023-06-19T10:15:20;28.98;55.95
66337;SHT30;53139;45.576;5.304;2023-06-19T10:18:21;29.49;50.43
66337;SHT30;53139;45.576;5.304;2023-06-19T10:21:25;30.63;49.30
66337;SHT30;53139;45.576;5.304;2023-06-19T10:24:25;30.73;46.72
66337;SHT30;53139;45.576;5.304;2023-06-19T10:27:26;31.67;50.11
66337;SHT30;53139;45.576;5.304;2023-06-19T10:30:27;32.08;45.59
66337;SHT30;53139;45.576;5.304;2023-06-19T10:33:31;32.84;43.21
66337;SHT30;53139;45.576;5.304;2023-06-19T10:36:32;31.15;43.87
66337;SHT30;53139;45.576;5.304;2023-06-19T10:39:33;30.48;44.97
66337;SHT30;53139;45.576;5.304;2023-06-19T10:42:33;30.63;45.77
66337;SHT30;53139;45.576;5.304;2023-06-19T10:45:34;30.23;46.83
66337;SHT30;53139;45.576;5.304;2023-06-19T10:48:34;31.28;44.18
66337;SHT30;53139;45.576;5.304;2023-06-19T10:51:36;30.90;43.80
66337;SHT30;53139;45.576;5.304;2023-06-19T10:54:37;32.01;42.45
66337;SHT30;53139;45.576;5.304;2023-06-19T10:57:38;32.08;41.50
66337;SHT30;53139;45.576;5.304;2023-06-19T11:00:39;31.90;41.66
66337;SHT30;53139;45.576;5.304;2023-06-19T11:03:39;32.91;43.07
66337;SHT30;53139;45.576;5.304;2023-06-19T11:06:40;32.88;42.80
66337;SHT30;53139;45.576;5.304;2023-06-19T11:09:41;32.72;42.02
66337;SHT30;53139;45.576;5.304;2023-06-19T11:12:43;33.19;42.38
66337;SHT30;53139;45.576;5.304;2023-06-19T11:15:43;32.56;39.37
66337;SHT30;53139;45.576;5.304;2023-06-19T11:18:44;32.01;41.52
66337;SHT30;53139;45.576;5.304;2023-06-19T11:21:50;32.48;41.62
66337;SHT30;53139;45.576;5.304;2023-06-19T11:24:50;32.38;39.86
66337;SHT30;53139;45.576;5.304;2023-06-19T11:27:51;32.69;40.36
66337;SHT30;53139;45.576;5.304;2023-06-19T11:31:00;32.67;40.53
66337;SHT30;53139;45.576;5.304;2023-06-19T11:34:01;33.32;39.24
66337;SHT30;53139;45.576;5.304;2023-06-19T11:37:12;33.39;40.13
66337;SHT30;53139;45.576;5.304;2023-06-19T11:40:13;34.03;38.22
66337;SHT30;53139;45.576;5.304;2023-06-19T11:43:29;33.44;40.01
66337;SHT30;53139;45.576;5.304;2023-06-19T11:46:31;33.12;39.69
66337;SHT30;53139;45.576;5.304;2023-06-19T11:49:35;33.24;38.99
66337;SHT30;53139;45.576;5.304;2023-06-19T11:52:35;33.29;38.22
66337;SHT30;53139;45.576;5.304;2023-06-19T11:55:36;32.33;38.66
66337;SHT30;53139;45.576;5.304;2023-06-19T11:58:36;33.44;36.80
66337;SHT30;53139;45.576;5.304;2023-06-19T12:01:36;33.29;36.68
66337;SHT30;53139;45.576;5.304;2023-06-19T12:04:37;34.79;38.25
66337;SHT30;53139;45.576;5.304;2023-06-19T12:07:38;34.69;35.91
66337;SHT30;53139;45.576;5.304;2023-06-19T12:10:38;35.54;35.72
66337;SHT30;53139;45.576;5.304;2023-06-19T12:13:42;34.61;34.88
66337;SHT30;53139;45.576;5.304;2023-06-19T12:16:43;33.80;35.70
66337;SHT30;53139;45.576;5.304;2023-06-19T12:19:43;33.72;37.17
66337;SHT30;53139;45.576;5.304;2023-06-19T12:22:43;34.82;35.43
66337;SHT30;53139;45.576;5.304;2023-06-19T12:25:44;34.80;35.92
66337;SHT30;53139;45.576;5.304;2023-06-19T12:28:44;35.78;35.39
66337;SHT30;53139;45.576;5.304;2023-06-19T12:31:45;34.48;35.86
66337;SHT30;53139;45.576;5.304;2023-06-19T12:34:45;35.14;34.87
66337;SHT30;53139;45.576;5.304;2023-06-19T12:37:46;36.27;35.27
66337;SHT30;53139;45.576;5.304;2023-06-19T12:40:47;37.23;34.71
66337;SHT30;53139;45.576;5.304;2023-06-19T12:43:47;37.46;36.11
66337;SHT30;53139;45.576;5.304;2023-06-19T12:46:48;37.43;35.18
66337;SHT30;53139;45.576;5.304;2023-06-19T12:49:48;37.59;36.74
66337;SHT30;53139;45.576;5.304;2023-06-19T12:52:49;36.77;33.21
66337;SHT30;53139;45.576;5.304;2023-06-19T12:55:50;35.78;34.75
66337;SHT30;53139;45.576;5.304;2023-06-19T12:58:50;36.29;35.33
66337;SHT30;53139;45.576;5.304;2023-06-19T13:01:51;36.07;35.08
66337;SHT30;53139;45.576;5.304;2023-06-19T13:04:52;35.41;35.22
66337;SHT30;53139;45.576;5.304;2023-06-19T13:07:52;35.75;35.62
66337;SHT30;53139;45.576;5.304;2023-06-19T13:10:52;36.48;37.08
66337;SHT30;53139;45.576;5.304;2023-06-19T13:13:53;36.60;34.67
66337;SHT30;53139;45.576;5.304;2023-06-19T13:16:53;35.86;36.29
66337;SHT30;53139;45.576;5.304;2023-06-19T13:19:54;35.35;36.70
66337;SHT30;53139;45.576;5.304;2023-06-19T13:22:54;35.93;36.83
66337;SHT30;53139;45.576;5.304;2023-06-19T13:25:54;34.55;37.87
66337;SHT30;53139;45.576;5.304;2023-06-19T13:28:55;33.56;38.93
66337;SHT30;53139;45.576;5.304;2023-06-19T13:31:59;33.92;38.38
66337;SHT30;53139;45.576;5.304;2023-06-19T13:34:59;34.99;40.66
66337;SHT30;53139;45.576;5.304;2023-06-19T13:37:59;34.48;38.38
66337;SHT30;53139;45.576;5.304;2023-06-19T13:41:00;32.86;40.66
66337;SHT30;53139;45.576;5.304;2023-06-19T13:44:00;32.73;40.85
66337;SHT30;53139;45.576;5.304;2023-06-19T13:47:01;32.66;41.47
66337;SHT30;53139;45.576;5.304;2023-06-19T13:50:01;33.10;41.66
66337;SHT30;53139;45.576;5.304;2023-06-19T13:53:02;34.89;38.92
66337;SHT30;53139;45.576;5.304;2023-06-19T13:56:02;35.13;39.17
66337;SHT30;53139;45.576;5.304;2023-06-19T13:59:03;36.12;37.01
66337;SHT30;53139;45.576;5.304;2023-06-19T14:02:03;35.00;37.00
66337;SHT30;53139;45.576;5.304;2023-06-19T14:05:05;34.85;37.73
66337;SHT30;53139;45.576;5.304;2023-06-19T14:08:06;34.23;38.14
66337;SHT30;53139;45.576;5.304;2023-06-19T14:11:06;34.45;36.59
66337;SHT30;53139;45.576;5.304;2023-06-19T14:14:07;34.59;37.39
66337;SHT30;53139;45.576;5.304;2023-06-19T14:17:07;34.97;35.77
66337;SHT30;53139;45.576;5.304;2023-06-19T14:20:10;33.58;37.37
66337;SHT30;53139;45.576;5.304;2023-06-19T14:23:11;33.31;38.23
66337;SHT30;53139;45.576;5.304;2023-06-19T14:26:11;32.69;39.05
66337;SHT30;53139;45.576;5.304;2023-06-19T14:29:12;34.66;42.21
66337;SHT30;53139;45.576;5.304;2023-06-19T14:32:15;34.47;37.71
66337;SHT30;53139;45.576;5.304;2023-06-19T14:35:15;33.59;38.77
66337;SHT30;53139;45.576;5.304;2023-06-19T14:38:16;32.42;39.84
66337;SHT30;53139;45.576;5.304;2023-06-19T14:41:17;31.53;39.63
66337;SHT30;53139;45.576;5.304;2023-06-19T14:44:17;31.09;41.20
66337;SHT30;53139;45.576;5.304;2023-06-19T14:47:18;31.08;40.72
66337;SHT30;53139;45.576;5.304;2023-06-19T14:50:18;32.84;38.99
66337;SHT30;53139;45.576;5.304;2023-06-19T14:53:18;33.38;37.84
66337;SHT30;53139;45.576;5.304;2023-06-19T14:56:19;33.76;38.62
66337;SHT30;53139;45.576;5.304;2023-06-19T14:59:19;34.10;37.68
66337;SHT30;53139;45.576;5.304;2023-06-19T15:02:20;33.66;39.82
66337;SHT30;53139;45.576;5.304;2023-06-19T15:05:20;34.28;37.48
66337;SHT30;53139;45.576;5.304;2023-06-19T15:08:20;33.62;38.01
66337;SHT30;53139;45.576;5.304;2023-06-19T15:11:23;33.93;37.87
66337;SHT30;53139;45.576;5.304;2023-06-19T15:14:24;34.51;38.42
66337;SHT30;53139;45.576;5.304;2023-06-19T15:17:24;33.25;39.61
66337;SHT30;53139;45.576;5.304;2023-06-19T15:20:25;32.27;40.43
66337;SHT30;53139;45.576;5.304;2023-06-19T15:23:25;31.42;41.52
66337;SHT30;53139;45.576;5.304;2023-06-19T15:26:26;31.97;41.04
66337;SHT30;53139;45.576;5.304;2023-06-19T15:29:26;31.39;42.24
66337;SHT30;53139;45.576;5.304;2023-06-19T15:32:29;30.74;43.37
66337;SHT30;53139;45.576;5.304;2023-06-19T15:35:34;30.35;44.29
66337;SHT30;53139;45.576;5.304;2023-06-19T15:38:34;30.60;45.91
66337;SHT30;53139;45.576;5.304;2023-06-19T15:41:35;30.57;45.02
66337;SHT30;53139;45.576;5.304;2023-06-19T15:44:36;30.90;43.59
66337;SHT30;53139;45.576;5.304;2023-06-19T15:47:40;30.68;44.99
66337;SHT30;53139;45.576;5.304;2023-06-19T15:50:41;31.14;44.16
66337;SHT30;53139;45.576;5.304;2023-06-19T15:53:41;32.24;43.70
66337;SHT30;53139;45.576;5.304;2023-06-19T15:56:42;32.92;43.69
66337;SHT30;53139;45.576;5.304;2023-06-19T15:59:43;32.80;42.85
66337;SHT30;53139;45.576;5.304;2023-06-19T16:02:47;32.76;42.29
66337;SHT30;53139;45.576;5.304;2023-06-19T16:05:48;32.79;41.40
66337;SHT30;53139;45.576;5.304;2023-06-19T16:08:51;31.88;42.78
66337;SHT30;53139;45.576;5.304;2023-06-19T16:11:52;32.87;42.35
66337;SHT30;53139;45.576;5.304;2023-06-19T16:14:52;32.35;42.01
66337;SHT30;53139;45.576;5.304;2023-06-19T16:17:53;31.72;42.53
66337;SHT30;53139;45.576;5.304;2023-06-19T16:20:54;31.12;44.67
66337;SHT30;53139;45.576;5.304;2023-06-19T16:23:55;30.63;44.20
66337;SHT30;53139;45.576;5.304;2023-06-19T16:26:55;30.32;45.77
66337;SHT30;53139;45.576;5.304;2023-06-19T16:29:56;30.08;45.40
66337;SHT30;53139;45.576;5.304;2023-06-19T16:32:56;30.05;45.18
66337;SHT30;53139;45.576;5.304;2023-06-19T16:35:56;29.89;46.55
66337;SHT30;53139;45.576;5.304;2023-06-19T16:38:57;29.75;45.42
66337;SHT30;53139;45.576;5.304;2023-06-19T16:41:57;29.58;47.22
66337;SHT30;53139;45.576;5.304;2023-06-19T16:44:58;29.78;45.71
66337;SHT30;53139;45.576;5.304;2023-06-19T16:47:58;29.30;48.16
66337;SHT30;53139;45.576;5.304;2023-06-19T16:50:59;29.37;46.81
66337;SHT30;53139;45.576;5.304;2023-06-19T16:53:59;29.22;48.53
66337;SHT30;53139;45.576;5.304;2023-06-19T16:56:59;29.30;48.51
66337;SHT30;53139;45.576;5.304;2023-06-19T17:00:01;29.56;46.85
66337;SHT30;53139;45.576;5.304;2023-06-19T17:03:04;29.42;48.39
66337;SHT30;53139;45.576;5.304;2023-06-19T17:06:04;29.45;46.83
66337;SHT30;53139;45.576;5.304;2023-06-19T17:09:08;29.29;49.05
66337;SHT30;53139;45.576;5.304;2023-06-19T17:12:12;29.16;48.94
66337;SHT30;53139;45.576;5.304;2023-06-19T17:15:34;29.22;49.47
66337;SHT30;53139;45.576;5.304;2023-06-19T17:18:59;28.87;50.31
66337;SHT30;53139;45.576;5.304;2023-06-19T17:23:01;28.60;51.48
66337;SHT30;53139;45.576;5.304;2023-06-19T17:26:33;28.63;51.77
66337;SHT30;53139;45.576;5.304;2023-06-19T17:29:41;28.92;50.24
66337;SHT30;53139;45.576;5.304;2023-06-19T17:32:42;28.78;50.16
66337;SHT30;53139;45.576;5.304;2023-06-19T17:35:49;28.82;49.65
66337;SHT30;53139;45.576;5.304;2023-06-19T17:38:49;28.71;50.16
66337;SHT30;53139;45.576;5.304;2023-06-19T17:41:50;28.55;50.54
66337;SHT30;53139;45.576;5.304;2023-06-19T17:44:50;28.47;51.63
66337;SHT30;53139;45.576;5.304;2023-06-19T17:47:50;28.41;50.65
66337;SHT30;53139;45.576;5.304;2023-06-19T17:51:22;28.35;50.64
66337;SHT30;53139;45.576;5.304;2023-06-19T17:55:23;28.23;50.52
66337;SHT30;53139;45.576;5.304;2023-06-19T17:58:33;27.95;51.27
66337;SHT30;53139;45.576;5.304;2023-06-19T18:02:03;27.72;50.94
66337;SHT30;53139;45.576;5.304;2023-06-19T18:05:19;27.62;51.03
66337;SHT30;53139;45.576;5.304;2023-06-19T18:08:38;27.40;51.45
66337;SHT30;53139;45.576;5.304;2023-06-19T18:12:03;27.43;50.74
66337;SHT30;53139;45.576;5.304;2023-06-19T18:15:22;27.26;50.63
66337;SHT30;53139;45.576;5.304;2023-06-19T18:18:22;27.36;50.53
66337;SHT30;53139;45.576;5.304;2023-06-19T18:21:22;27.33;49.86
66337;SHT30;53139;45.576;5.304;2023-06-19T18:24:23;27.24;51.08
66337;SHT30;53139;45.576;5.304;2023-06-19T18:27:23;27.20;50.65
66337;SHT30;53139;45.576;5.304;2023-06-19T18:30:23;27.14;50.58
66337;SHT30;53139;45.576;5.304;2023-06-19T18:33:24;27.09;50.25
66337;SHT30;53139;45.576;5.304;2023-06-19T18:36:24;26.99;51.21
66337;SHT30;53139;45.576;5.304;2023-06-19T18:39:25;27.06;50.99
66337;SHT30;53139;45.576;5.304;2023-06-19T18:42:25;26.78;52.08
66337;SHT30;53139;45.576;5.304;2023-06-19T18:45:27;26.83;51.28
66337;SHT30;53139;45.576;5.304;2023-06-19T18:48:27;26.62;51.70
66337;SHT30;53139;45.576;5.304;2023-06-19T18:51:28;26.58;52.32
66337;SHT30;53139;45.576;5.304;2023-06-19T18:54:28;26.62;52.06
66337;SHT30;53139;45.576;5.304;2023-06-19T18:57:28;26.30;53.42
66337;SHT30;53139;45.576;5.304;2023-06-19T19:00:29;26.45;52.51
66337;SHT30;53139;45.576;5.304;2023-06-19T19:03:29;26.24;53.26
66337;SHT30;53139;45.576;5.304;2023-06-19T19:06:30;26.28;52.98
66337;SHT30;53139;45.576;5.304;2023-06-19T19:09:30;26.23;53.34
66337;SHT30;53139;45.576;5.304;2023-06-19T19:12:30;25.89;54.88
66337;SHT30;53139;45.576;5.304;2023-06-19T19:15:31;25.93;53.96